Everett, WA (98208)

7:47 AM PST on February 12, 2016 (GMT -0800)
Silver Lake | | Change Station
CLOSE
Current Station
Personal Weather Station
Location: Everett, WA
Elevation: 443 ft
Nearby Weather Stations

Elev 443 ft 47.88 °N, 122.20 °W | Updated 3 minutes ago

Overcast
Overcast
50.9 °F
Feels Like 50.9 °F
N
2.5
Wind Variable Wind from ESE
Gusts 2.5 mph

Today
High -- | Low -- °F
--% Chance of Precip.
Yesterday
High -- | Low -- °F
Precip. -- in
Pressure 30.06 in
Visibility 10.0 miles
Clouds Mostly Cloudy 800 ft
Mostly Cloudy 2200 ft
Overcast 5000 ft
Dew Point 49 °F
Humidity 94%
Rainfall 0.35 in
Snow Depth Not available.
7:20 AM 5:26 PM
Waxing Crescent, 21% visible
METAR KPAE 121453Z 16014KT 10SM BKN008 BKN022 OVC050 11/09 A3006 RMK AO2 RAE1359 SLP180 P0000 60001 T01060089 58005
Pressure 30.06 in
Visibility 10.0 miles
Clouds Mostly Cloudy 800 ft
Mostly Cloudy 2200 ft
Overcast 5000 ft
Dew Point 49 °F
Humidity 94%
Rainfall 0.35 in
Snow Depth Not available.
7:20 AM 5:26 PM
Waxing Crescent, 21% visible
METAR KPAE 121453Z 16014KT 10SM BKN008 BKN022 OVC050 11/09 A3006 RMK AO2 RAE1359 SLP180 P0000 60001 T01060089 58005

10-Day Weather Forecast

Almanac

Astronomy

Feb. 12, 2016 Rise Set
Actual Time
Civil Twilight
Nautical Twilight
Astronomical Twilight
Moon
Length of Visible Light
Length of Day
Tomorrow will be .
, % of the Moon is Illuminated

Today's Extremes

State Highs State Lows

Community

WunderPhotos

Upload Photos

1,892,335 photos uploaded!

WunderBlog® & News

Nearby

Air Quality

  Air Quality AQ Index Pollutant
Not available.

Snow Depth

Station Depth Elevation

Earthquake Activity

City Distance Mag. Time & Date
Minimum magnitude displayed is 2.5.

Coastal Water Temperatures

Place Temperature

Stations

Nearby Weather Stations

Station Location Temp. Windchill Dew Point Humidity Wind Precip. Elev Updated Type
                   

Watches & Warnings

There are currently no watches in effect.